sensor_id;sensor_type;location;lat;lon;timestamp;noise_LAeq;noise_LA_min;noise_LA_max;noise_LA01;noise_LA95
41518;Laerm;27249;48.094;-1.690;2023-03-23T00:01:06;49.91;40.80;63.23;;
41518;Laerm;27249;48.094;-1.690;2023-03-23T00:03:31;49.80;42.03;65.43;;
41518;Laerm;27249;48.094;-1.690;2023-03-23T00:05:59;52.79;41.30;77.25;;
41518;Laerm;27249;48.094;-1.690;2023-03-23T00:08:27;52.08;41.38;80.21;;
41518;Laerm;27249;48.094;-1.690;2023-03-23T00:10:54;50.01;41.22;69.34;;
41518;Laerm;27249;48.094;-1.690;2023-03-23T00:13:23;48.87;41.30;65.01;;
41518;Laerm;27249;48.094;-1.690;2023-03-23T00:15:49;46.57;40.43;62.49;;
41518;Laerm;27249;48.094;-1.690;2023-03-23T00:18:17;45.51;40.43;72.87;;
41518;Laerm;27249;48.094;-1.690;2023-03-23T00:20:50;50.12;40.98;74.75;;
41518;Laerm;27249;48.094;-1.690;2023-03-23T00:23:17;52.10;40.71;79.74;;
41518;Laerm;27249;48.094;-1.690;2023-03-23T00:25:46;46.58;41.06;65.75;;
41518;Laerm;27249;48.094;-1.690;2023-03-23T00:28:11;44.48;41.53;58.93;;
41518;Laerm;27249;48.094;-1.690;2023-03-23T00:30:37;51.16;41.30;78.82;;
41518;Laerm;27249;48.094;-1.690;2023-03-23T00:33:03;47.24;40.43;68.42;;
41518;Laerm;27249;48.094;-1.690;2023-03-23T00:35:29;47.34;41.46;62.85;;
41518;Laerm;27249;48.094;-1.690;2023-03-23T00:37:55;49.53;41.30;70.54;;
41518;Laerm;27249;48.094;-1.690;2023-03-23T00:40:21;54.14;41.61;77.09;;
41518;Laerm;27249;48.094;-1.690;2023-03-23T00:42:46;49.78;40.23;73.41;;
41518;Laerm;27249;48.094;-1.690;2023-03-23T00:45:13;44.61;40.43;58.42;;
41518;Laerm;27249;48.094;-1.690;2023-03-23T00:47:39;50.64;40.62;71.87;;
41518;Laerm;27249;48.094;-1.690;2023-03-23T00:50:07;49.39;41.38;68.97;;
41518;Laerm;27249;48.094;-1.690;2023-03-23T00:52:32;55.09;42.09;78.79;;
41518;Laerm;27249;48.094;-1.690;2023-03-23T00:54:58;49.29;40.33;67.54;;
41518;Laerm;27249;48.094;-1.690;2023-03-23T00:57:23;49.60;40.98;71.25;;
41518;Laerm;27249;48.094;-1.690;2023-03-23T00:59:51;53.74;41.06;80.72;;
41518;Laerm;27249;48.094;-1.690;2023-03-23T01:02:16;48.59;40.98;68.45;;
41518;Laerm;27249;48.094;-1.690;2023-03-23T01:04:43;45.67;40.53;69.22;;
41518;Laerm;27249;48.094;-1.690;2023-03-23T01:07:11;49.56;40.71;62.84;;
41518;Laerm;27249;48.094;-1.690;2023-03-23T01:09:38;47.33;40.98;67.00;;
41518;Laerm;27249;48.094;-1.690;2023-03-23T01:12:10;58.42;42.98;90.03;;
41518;Laerm;27249;48.094;-1.690;2023-03-23T01:14:35;53.30;41.38;77.10;;
41518;Laerm;27249;48.094;-1.690;2023-03-23T01:17:01;48.19;40.62;70.26;;
41518;Laerm;27249;48.094;-1.690;2023-03-23T01:19:27;52.84;42.13;74.21;;
41518;Laerm;27249;48.094;-1.690;2023-03-23T01:21:53;51.27;41.75;74.24;;
41518;Laerm;27249;48.094;-1.690;2023-03-23T01:24:18;46.05;41.06;68.79;;
41518;Laerm;27249;48.094;-1.690;2023-03-23T01:26:43;50.27;40.98;69.55;;
41518;Laerm;27249;48.094;-1.690;2023-03-23T01:29:08;55.99;41.96;79.96;;
41518;Laerm;27249;48.094;-1.690;2023-03-23T01:31:34;49.13;41.14;63.35;;
41518;Laerm;27249;48.094;-1.690;2023-03-23T01:46:12;49.89;42.03;72.28;;
41518;Laerm;27249;48.094;-1.690;2023-03-23T01:48:37;51.01;41.82;77.03;;
41518;Laerm;27249;48.094;-1.690;2023-03-23T01:51:04;49.82;40.98;69.89;;
41518;Laerm;27249;48.094;-1.690;2023-03-23T01:53:34;47.86;41.30;68.31;;
41518;Laerm;27249;48.094;-1.690;2023-03-23T01:56:01;47.34;40.33;70.95;;
41518;Laerm;27249;48.094;-1.690;2023-03-23T01:58:27;49.93;42.03;69.34;;
41518;Laerm;27249;48.094;-1.690;2023-03-23T02:00:54;51.04;41.89;72.48;;
41518;Laerm;27249;48.094;-1.690;2023-03-23T02:03:21;51.35;41.46;70.52;;
41518;Laerm;27249;48.094;-1.690;2023-03-23T02:05:48;49.78;41.68;69.78;;
41518;Laerm;27249;48.094;-1.690;2023-03-23T02:08:14;49.38;42.35;71.98;;
41518;Laerm;27249;48.094;-1.690;2023-03-23T02:10:47;54.96;42.22;81.21;;
41518;Laerm;27249;48.094;-1.690;2023-03-23T02:13:13;51.24;44.19;71.31;;
41518;Laerm;27249;48.094;-1.690;2023-03-23T02:16:41;56.72;42.59;77.91;;
41518;Laerm;27249;48.094;-1.690;2023-03-23T02:23:52;49.80;42.09;69.33;;
41518;Laerm;27249;48.094;-1.690;2023-03-23T02:26:33;55.75;42.16;78.90;;
41518;Laerm;27249;48.094;-1.690;2023-03-23T02:29:14;50.76;42.03;72.38;;
41518;Laerm;27249;48.094;-1.690;2023-03-23T02:37:03;52.45;41.38;79.05;;
41518;Laerm;27249;48.094;-1.690;2023-03-23T02:39:32;48.59;41.53;71.41;;
41518;Laerm;27249;48.094;-1.690;2023-03-23T02:42:05;53.12;41.96;69.71;;
41518;Laerm;27249;48.094;-1.690;2023-03-23T02:47:28;49.86;40.62;66.46;;
41518;Laerm;27249;48.094;-1.690;2023-03-23T02:49:55;46.37;40.53;63.57;;
41518;Laerm;27249;48.094;-1.690;2023-03-23T02:52:23;51.47;41.61;75.58;;
41518;Laerm;27249;48.094;-1.690;2023-03-23T02:54:49;59.45;41.46;91.00;;
41518;Laerm;27249;48.094;-1.690;2023-03-23T02:57:16;50.30;41.38;70.99;;
41518;Laerm;27249;48.094;-1.690;2023-03-23T02:59:42;51.17;41.46;74.55;;
41518;Laerm;27249;48.094;-1.690;2023-03-23T03:05:38;44.63;41.68;58.57;;
41518;Laerm;27249;48.094;-1.690;2023-03-23T03:10:06;47.22;41.14;65.17;;
41518;Laerm;27249;48.094;-1.690;2023-03-23T03:15:26;48.80;41.61;63.30;;
41518;Laerm;27249;48.094;-1.690;2023-03-23T03:18:17;48.79;41.61;59.37;;
41518;Laerm;27249;48.094;-1.690;2023-03-23T03:20:50;51.73;42.03;62.60;;
41518;Laerm;27249;48.094;-1.690;2023-03-23T03:23:18;49.87;41.61;61.44;;
41518;Laerm;27249;48.094;-1.690;2023-03-23T03:25:45;46.50;42.41;65.74;;
41518;Laerm;27249;48.094;-1.690;2023-03-23T03:28:14;48.28;41.96;64.22;;
41518;Laerm;27249;48.094;-1.690;2023-03-23T03:30:40;50.85;42.88;63.65;;
41518;Laerm;27249;48.094;-1.690;2023-03-23T03:33:09;47.21;42.35;62.09;;
41518;Laerm;27249;48.094;-1.690;2023-03-23T03:35:36;50.64;42.09;67.34;;
41518;Laerm;27249;48.094;-1.690;2023-03-23T03:38:09;52.19;43.49;64.99;;
41518;Laerm;27249;48.094;-1.690;2023-03-23T03:40:35;49.67;42.88;67.84;;
41518;Laerm;27249;48.094;-1.690;2023-03-23T03:43:00;50.23;42.82;65.42;;
41518;Laerm;27249;48.094;-1.690;2023-03-23T03:45:26;52.55;43.09;71.83;;
41518;Laerm;27249;48.094;-1.690;2023-03-23T03:47:51;52.20;43.68;66.01;;
41518;Laerm;27249;48.094;-1.690;2023-03-23T03:50:16;45.95;42.35;65.42;;
41518;Laerm;27249;48.094;-1.690;2023-03-23T03:52:42;53.15;43.14;77.64;;
41518;Laerm;27249;48.094;-1.690;2023-03-23T03:55:07;46.84;42.76;60.83;;
41518;Laerm;27249;48.094;-1.690;2023-03-23T03:57:33;48.76;43.24;66.04;;
41518;Laerm;27249;48.094;-1.690;2023-03-23T03:59:58;48.54;42.88;60.56;;
41518;Laerm;27249;48.094;-1.690;2023-03-23T04:02:24;54.86;43.81;69.25;;
41518;Laerm;27249;48.094;-1.690;2023-03-23T04:04:49;54.30;43.58;64.95;;
41518;Laerm;27249;48.094;-1.690;2023-03-23T04:07:16;53.24;42.47;65.65;;
41518;Laerm;27249;48.094;-1.690;2023-03-23T04:09:43;51.34;42.65;62.34;;
41518;Laerm;27249;48.094;-1.690;2023-03-23T04:12:10;51.44;42.65;63.86;;
41518;Laerm;27249;48.094;-1.690;2023-03-23T04:14:36;53.34;42.53;63.91;;
41518;Laerm;27249;48.094;-1.690;2023-03-23T04:17:01;51.90;42.71;65.08;;
41518;Laerm;27249;48.094;-1.690;2023-03-23T04:19:27;48.66;42.98;62.15;;
41518;Laerm;27249;48.094;-1.690;2023-03-23T04:21:53;51.89;42.82;65.64;;
41518;Laerm;27249;48.094;-1.690;2023-03-23T04:24:20;50.35;42.93;61.82;;
41518;Laerm;27249;48.094;-1.690;2023-03-23T04:26:46;54.30;43.94;75.80;;
41518;Laerm;27249;48.094;-1.690;2023-03-23T04:29:11;52.64;43.54;67.87;;
41518;Laerm;27249;48.094;-1.690;2023-03-23T04:31:38;52.11;43.54;64.62;;
41518;Laerm;27249;48.094;-1.690;2023-03-23T04:34:04;51.65;43.29;68.55;;
41518;Laerm;27249;48.094;-1.690;2023-03-23T04:36:29;54.67;43.34;67.11;;
41518;Laerm;27249;48.094;-1.690;2023-03-23T04:38:55;52.72;43.58;65.17;;
41518;Laerm;27249;48.094;-1.690;2023-03-23T04:41:21;56.89;43.89;67.30;;
41518;Laerm;27249;48.094;-1.690;2023-03-23T04:43:47;53.64;44.31;64.85;;
41518;Laerm;27249;48.094;-1.690;2023-03-23T04:46:17;51.60;43.86;64.27;;
41518;Laerm;27249;48.094;-1.690;2023-03-23T04:48:43;56.19;44.15;69.13;;
41518;Laerm;27249;48.094;-1.690;2023-03-23T04:51:09;53.53;44.27;65.40;;
41518;Laerm;27249;48.094;-1.690;2023-03-23T04:53:34;53.70;44.97;64.81;;
41518;Laerm;27249;48.094;-1.690;2023-03-23T04:56:00;55.73;44.76;67.29;;
41518;Laerm;27249;48.094;-1.690;2023-03-23T04:58:26;57.43;45.36;71.06;;
41518;Laerm;27249;48.094;-1.690;2023-03-23T05:00:53;53.85;44.58;65.40;;
41518;Laerm;27249;48.094;-1.690;2023-03-23T05:03:18;53.55;44.76;66.99;;
41518;Laerm;27249;48.094;-1.690;2023-03-23T05:05:44;56.26;45.11;65.68;;
41518;Laerm;27249;48.094;-1.690;2023-03-23T05:08:12;54.75;45.01;65.17;;
41518;Laerm;27249;48.094;-1.690;2023-03-23T05:10:38;56.99;45.94;66.88;;
41518;Laerm;27249;48.094;-1.690;2023-03-23T05:13:12;54.19;44.31;67.09;;
41518;Laerm;27249;48.094;-1.690;2023-03-23T05:15:37;56.64;45.45;70.40;;
41518;Laerm;27249;48.094;-1.690;2023-03-23T05:18:03;54.89;45.60;65.45;;
41518;Laerm;27249;48.094;-1.690;2023-03-23T05:20:28;56.77;46.97;67.61;;
41518;Laerm;27249;48.094;-1.690;2023-03-23T05:22:55;56.93;46.73;64.75;;
41518;Laerm;27249;48.094;-1.690;2023-03-23T05:25:21;53.63;45.80;72.57;;
41518;Laerm;27249;48.094;-1.690;2023-03-23T05:27:47;56.20;45.66;64.36;;
41518;Laerm;27249;48.094;-1.690;2023-03-23T05:30:18;57.84;49.49;67.01;;
41518;Laerm;27249;48.094;-1.690;2023-03-23T05:35:17;57.40;47.86;69.40;;
41518;Laerm;27249;48.094;-1.690;2023-03-23T05:37:43;56.67;46.97;66.50;;
41518;Laerm;27249;48.094;-1.690;2023-03-23T05:40:10;57.47;49.00;66.45;;
41518;Laerm;27249;48.094;-1.690;2023-03-23T05:42:37;55.01;45.54;69.52;;
41518;Laerm;27249;48.094;-1.690;2023-03-23T05:45:03;54.35;45.45;71.19;;
41518;Laerm;27249;48.094;-1.690;2023-03-23T05:47:29;54.24;46.05;63.07;;
41518;Laerm;27249;48.094;-1.690;2023-03-23T05:49:56;57.35;48.12;70.79;;
41518;Laerm;27249;48.094;-1.690;2023-03-23T05:52:21;57.95;51.40;70.17;;
41518;Laerm;27249;48.094;-1.690;2023-03-23T05:54:48;55.80;45.67;64.69;;
41518;Laerm;27249;48.094;-1.690;2023-03-23T05:57:14;56.83;47.12;65.40;;
41518;Laerm;27249;48.094;-1.690;2023-03-23T05:59:39;56.30;48.70;62.56;;
41518;Laerm;27249;48.094;-1.690;2023-03-23T06:02:05;57.20;48.69;65.49;;
41518;Laerm;27249;48.094;-1.690;2023-03-23T06:04:31;56.60;47.08;65.43;;
41518;Laerm;27249;48.094;-1.690;2023-03-23T06:06:58;57.77;51.64;64.74;;
41518;Laerm;27249;48.094;-1.690;2023-03-23T06:09:23;59.39;49.41;67.99;;
41518;Laerm;27249;48.094;-1.690;2023-03-23T06:11:50;57.75;49.09;67.68;;
41518;Laerm;27249;48.094;-1.690;2023-03-23T06:14:15;63.22;53.12;87.58;;
41518;Laerm;27249;48.094;-1.690;2023-03-23T06:16:44;59.59;50.47;65.51;;
41518;Laerm;27249;48.094;-1.690;2023-03-23T06:19:09;59.28;49.85;67.06;;
41518;Laerm;27249;48.094;-1.690;2023-03-23T06:21:36;58.37;51.43;65.04;;
41518;Laerm;27249;48.094;-1.690;2023-03-23T06:24:02;58.88;52.33;64.38;;
41518;Laerm;27249;48.094;-1.690;2023-03-23T06:26:30;60.84;52.93;71.70;;
41518;Laerm;27249;48.094;-1.690;2023-03-23T06:28:56;60.20;52.70;67.15;;
41518;Laerm;27249;48.094;-1.690;2023-03-23T06:31:37;59.92;53.35;68.08;;
41518;Laerm;27249;48.094;-1.690;2023-03-23T06:34:03;59.58;52.04;67.90;;
41518;Laerm;27249;48.094;-1.690;2023-03-23T06:36:29;59.23;51.30;66.86;;
41518;Laerm;27249;48.094;-1.690;2023-03-23T06:38:54;61.14;52.82;73.91;;
41518;Laerm;27249;48.094;-1.690;2023-03-23T06:41:20;59.88;54.77;70.94;;
41518;Laerm;27249;48.094;-1.690;2023-03-23T06:43:46;59.15;52.90;72.52;;
41518;Laerm;27249;48.094;-1.690;2023-03-23T06:46:12;59.08;53.64;64.41;;
41518;Laerm;27249;48.094;-1.690;2023-03-23T06:48:37;59.66;51.53;68.86;;
41518;Laerm;27249;48.094;-1.690;2023-03-23T06:51:03;60.35;53.91;73.34;;
41518;Laerm;27249;48.094;-1.690;2023-03-23T06:53:28;59.52;54.15;65.89;;
41518;Laerm;27249;48.094;-1.690;2023-03-23T06:55:54;59.15;52.60;65.96;;
41518;Laerm;27249;48.094;-1.690;2023-03-23T06:58:19;60.08;54.26;68.08;;
41518;Laerm;27249;48.094;-1.690;2023-03-23T07:00:44;60.02;52.70;64.61;;
41518;Laerm;27249;48.094;-1.690;2023-03-23T07:03:10;60.43;55.24;69.17;;
41518;Laerm;27249;48.094;-1.690;2023-03-23T07:05:36;59.22;54.05;65.46;;
41518;Laerm;27249;48.094;-1.690;2023-03-23T07:08:02;59.44;52.72;65.30;;
41518;Laerm;27249;48.094;-1.690;2023-03-23T07:10:27;59.49;53.68;73.07;;
41518;Laerm;27249;48.094;-1.690;2023-03-23T07:12:53;58.63;51.36;73.32;;
41518;Laerm;27249;48.094;-1.690;2023-03-23T07:15:18;58.68;51.13;64.69;;
41518;Laerm;27249;48.094;-1.690;2023-03-23T07:17:43;60.48;51.69;73.46;;
41518;Laerm;27249;48.094;-1.690;2023-03-23T07:20:09;59.52;54.44;65.53;;
41518;Laerm;27249;48.094;-1.690;2023-03-23T07:22:35;58.45;50.28;64.79;;
41518;Laerm;27249;48.094;-1.690;2023-03-23T07:25:00;58.60;53.31;65.21;;
41518;Laerm;27249;48.094;-1.690;2023-03-23T07:27:26;58.55;52.46;71.55;;
41518;Laerm;27249;48.094;-1.690;2023-03-23T07:29:51;58.32;53.12;67.69;;
41518;Laerm;27249;48.094;-1.690;2023-03-23T07:32:17;58.26;52.33;64.10;;
41518;Laerm;27249;48.094;-1.690;2023-03-23T07:34:42;58.81;51.83;65.21;;
41518;Laerm;27249;48.094;-1.690;2023-03-23T07:37:08;58.67;51.72;65.97;;
41518;Laerm;27249;48.094;-1.690;2023-03-23T07:39:33;58.77;52.22;69.51;;
41518;Laerm;27249;48.094;-1.690;2023-03-23T07:41:59;59.43;53.37;64.93;;
41518;Laerm;27249;48.094;-1.690;2023-03-23T07:44:24;59.48;51.67;66.09;;
41518;Laerm;27249;48.094;-1.690;2023-03-23T07:46:50;58.31;50.34;70.61;;
41518;Laerm;27249;48.094;-1.690;2023-03-23T07:49:16;59.46;51.93;66.97;;
41518;Laerm;27249;48.094;-1.690;2023-03-23T07:51:42;58.36;50.51;66.62;;
41518;Laerm;27249;48.094;-1.690;2023-03-23T07:54:07;59.11;51.48;66.67;;
41518;Laerm;27249;48.094;-1.690;2023-03-23T07:56:33;57.76;50.52;72.86;;
41518;Laerm;27249;48.094;-1.690;2023-03-23T07:58:58;58.16;50.87;70.90;;
41518;Laerm;27249;48.094;-1.690;2023-03-23T08:01:24;57.94;50.67;76.87;;
41518;Laerm;27249;48.094;-1.690;2023-03-23T08:03:49;57.49;51.22;69.87;;
41518;Laerm;27249;48.094;-1.690;2023-03-23T08:06:15;57.56;50.67;65.00;;
41518;Laerm;27249;48.094;-1.690;2023-03-23T08:08:40;57.13;50.11;70.47;;
41518;Laerm;27249;48.094;-1.690;2023-03-23T08:11:06;58.07;49.97;69.98;;
41518;Laerm;27249;48.094;-1.690;2023-03-23T08:13:32;56.31;50.53;63.63;;
41518;Laerm;27249;48.094;-1.690;2023-03-23T08:15:58;57.45;50.29;65.77;;
41518;Laerm;27249;48.094;-1.690;2023-03-23T08:18:23;57.24;48.64;68.17;;
41518;Laerm;27249;48.094;-1.690;2023-03-23T08:20:50;57.04;48.23;64.53;;
41518;Laerm;27249;48.094;-1.690;2023-03-23T08:23:15;57.73;49.14;75.44;;
41518;Laerm;27249;48.094;-1.690;2023-03-23T08:25:41;56.34;47.55;71.83;;
41518;Laerm;27249;48.094;-1.690;2023-03-23T08:28:07;55.54;47.74;63.30;;
41518;Laerm;27249;48.094;-1.690;2023-03-23T08:30:34;56.75;48.77;71.25;;
41518;Laerm;27249;48.094;-1.690;2023-03-23T08:33:01;56.04;49.32;68.60;;
41518;Laerm;27249;48.094;-1.690;2023-03-23T08:35:27;57.39;49.39;67.14;;
41518;Laerm;27249;48.094;-1.690;2023-03-23T08:37:53;56.53;48.77;69.94;;
41518;Laerm;27249;48.094;-1.690;2023-03-23T08:40:20;56.87;48.90;63.67;;
41518;Laerm;27249;48.094;-1.690;2023-03-23T08:42:47;57.04;49.46;65.73;;
41518;Laerm;27249;48.094;-1.690;2023-03-23T08:45:13;56.75;49.28;72.01;;
41518;Laerm;27249;48.094;-1.690;2023-03-23T08:47:40;58.75;51.55;69.44;;
41518;Laerm;27249;48.094;-1.690;2023-03-23T08:50:06;58.35;50.77;72.37;;
41518;Laerm;27249;48.094;-1.690;2023-03-23T08:52:31;57.44;49.06;69.40;;
41518;Laerm;27249;48.094;-1.690;2023-03-23T08:54:57;55.82;48.25;62.20;;
41518;Laerm;27249;48.094;-1.690;2023-03-23T08:57:23;58.33;50.33;67.43;;
41518;Laerm;27249;48.094;-1.690;2023-03-23T08:59:49;57.58;50.62;66.86;;
41518;Laerm;27249;48.094;-1.690;2023-03-23T09:02:14;55.37;50.26;71.54;;
41518;Laerm;27249;48.094;-1.690;2023-03-23T09:04:41;57.69;51.90;74.88;;
41518;Laerm;27249;48.094;-1.690;2023-03-23T09:07:08;58.68;50.63;76.46;;
41518;Laerm;27249;48.094;-1.690;2023-03-23T09:09:33;56.59;48.76;67.49;;
41518;Laerm;27249;48.094;-1.690;2023-03-23T09:11:59;59.02;51.72;73.25;;
41518;Laerm;27249;48.094;-1.690;2023-03-23T09:14:24;57.32;51.12;68.22;;
41518;Laerm;27249;48.094;-1.690;2023-03-23T09:16:50;56.68;48.77;64.46;;
41518;Laerm;27249;48.094;-1.690;2023-03-23T09:19:15;57.76;51.81;67.21;;
41518;Laerm;27249;48.094;-1.690;2023-03-23T09:21:40;56.38;48.16;67.81;;
41518;Laerm;27249;48.094;-1.690;2023-03-23T09:24:06;57.40;50.49;68.31;;
41518;Laerm;27249;48.094;-1.690;2023-03-23T09:26:31;57.31;50.10;69.64;;
41518;Laerm;27249;48.094;-1.690;2023-03-23T09:28:57;55.92;49.25;64.08;;
41518;Laerm;27249;48.094;-1.690;2023-03-23T09:31:23;56.58;49.51;65.08;;
41518;Laerm;27249;48.094;-1.690;2023-03-23T09:33:51;56.45;50.32;67.01;;
41518;Laerm;27249;48.094;-1.690;2023-03-23T09:36:17;56.59;48.98;64.05;;
41518;Laerm;27249;48.094;-1.690;2023-03-23T09:38:42;57.28;48.91;62.50;;
41518;Laerm;27249;48.094;-1.690;2023-03-23T09:44:03;56.84;48.64;64.82;;
41518;Laerm;27249;48.094;-1.690;2023-03-23T09:49:02;57.33;49.67;70.92;;
41518;Laerm;27249;48.094;-1.690;2023-03-23T09:54:03;55.94;49.11;62.65;;
41518;Laerm;27249;48.094;-1.690;2023-03-23T09:56:30;55.71;46.91;62.30;;
41518;Laerm;27249;48.094;-1.690;2023-03-23T09:59:02;56.39;49.44;62.22;;
41518;Laerm;27249;48.094;-1.690;2023-03-23T10:01:31;56.77;49.55;66.95;;
41518;Laerm;27249;48.094;-1.690;2023-03-23T10:04:09;57.74;50.88;68.81;;
41518;Laerm;27249;48.094;-1.690;2023-03-23T10:06:37;56.81;50.23;63.19;;
41518;Laerm;27249;48.094;-1.690;2023-03-23T10:09:04;56.62;49.65;70.47;;
41518;Laerm;27249;48.094;-1.690;2023-03-23T10:11:38;55.79;49.93;62.54;;
41518;Laerm;27249;48.094;-1.690;2023-03-23T10:14:25;59.80;51.12;75.84;;
41518;Laerm;27249;48.094;-1.690;2023-03-23T10:19:40;57.45;52.44;62.84;;
41518;Laerm;27249;48.094;-1.690;2023-03-23T10:22:10;56.34;50.08;74.73;;
41518;Laerm;27249;48.094;-1.690;2023-03-23T10:24:41;56.91;50.77;66.76;;
41518;Laerm;27249;48.094;-1.690;2023-03-23T10:29:37;58.30;48.63;67.91;;
41518;Laerm;27249;48.094;-1.690;2023-03-23T10:34:40;57.49;50.98;74.79;;
41518;Laerm;27249;48.094;-1.690;2023-03-23T10:37:40;56.28;48.78;73.57;;
41518;Laerm;27249;48.094;-1.690;2023-03-23T10:39:59;57.73;48.45;70.38;;
41518;Laerm;27249;48.094;-1.690;2023-03-23T10:42:28;59.54;52.33;73.82;;
41518;Laerm;27249;48.094;-1.690;2023-03-23T10:44:55;56.07;48.55;66.52;;
41518;Laerm;27249;48.094;-1.690;2023-03-23T10:47:21;57.01;49.75;66.90;;
41518;Laerm;27249;48.094;-1.690;2023-03-23T10:49:54;56.73;50.58;68.62;;
41518;Laerm;27249;48.094;-1.690;2023-03-23T10:52:26;56.78;50.20;67.89;;
41518;Laerm;27249;48.094;-1.690;2023-03-23T10:54:57;55.76;49.24;63.94;;
41518;Laerm;27249;48.094;-1.690;2023-03-23T10:59:48;58.88;52.66;72.06;;
41518;Laerm;27249;48.094;-1.690;2023-03-23T11:02:14;58.31;50.40;66.50;;
41518;Laerm;27249;48.094;-1.690;2023-03-23T11:04:44;56.82;48.74;64.38;;
41518;Laerm;27249;48.094;-1.690;2023-03-23T11:07:14;56.64;51.26;66.37;;
41518;Laerm;27249;48.094;-1.690;2023-03-23T11:09:51;57.05;50.24;73.09;;
41518;Laerm;27249;48.094;-1.690;2023-03-23T11:12:17;57.79;51.02;72.29;;
41518;Laerm;27249;48.094;-1.690;2023-03-23T11:14:42;57.90;48.70;71.41;;
41518;Laerm;27249;48.094;-1.690;2023-03-23T11:17:26;56.72;47.96;71.26;;
41518;Laerm;27249;48.094;-1.690;2023-03-23T11:19:51;55.03;48.76;62.37;;
41518;Laerm;27249;48.094;-1.690;2023-03-23T11:22:29;55.46;47.18;62.78;;
41518;Laerm;27249;48.094;-1.690;2023-03-23T11:24:59;56.63;50.24;65.99;;
41518;Laerm;27249;48.094;-1.690;2023-03-23T11:27:25;59.06;50.95;84.26;;
41518;Laerm;27249;48.094;-1.690;2023-03-23T11:32:18;56.71;51.52;66.72;;
41518;Laerm;27249;48.094;-1.690;2023-03-23T11:34:45;55.55;47.55;61.96;;
41518;Laerm;27249;48.094;-1.690;2023-03-23T11:42:13;56.92;49.39;68.93;;
41518;Laerm;27249;48.094;-1.690;2023-03-23T11:44:43;59.19;47.95;70.72;;
41518;Laerm;27249;48.094;-1.690;2023-03-23T11:47:20;54.90;46.80;63.54;;
41518;Laerm;27249;48.094;-1.690;2023-03-23T11:49:51;57.42;51.02;69.11;;
41518;Laerm;27249;48.094;-1.690;2023-03-23T11:52:25;57.79;50.68;63.84;;
41518;Laerm;27249;48.094;-1.690;2023-03-23T11:54:56;57.22;50.42;64.78;;
41518;Laerm;27249;48.094;-1.690;2023-03-23T11:57:27;56.92;46.02;66.91;;
41518;Laerm;27249;48.094;-1.690;2023-03-23T11:59:53;61.79;50.40;84.10;;
41518;Laerm;27249;48.094;-1.690;2023-03-23T12:12:18;57.16;51.20;66.75;;
41518;Laerm;27249;48.094;-1.690;2023-03-23T12:25:42;55.98;50.11;65.28;;
41518;Laerm;27249;48.094;-1.690;2023-03-23T12:43:38;57.79;50.76;77.08;;
41518;Laerm;27249;48.094;-1.690;2023-03-23T12:48:54;56.98;50.29;71.97;;
41518;Laerm;27249;48.094;-1.690;2023-03-23T12:51:29;56.98;49.56;66.14;;
41518;Laerm;27249;48.094;-1.690;2023-03-23T12:56:36;56.41;48.77;68.87;;
41518;Laerm;27249;48.094;-1.690;2023-03-23T12:59:14;58.55;49.51;73.81;;
41518;Laerm;27249;48.094;-1.690;2023-03-23T13:04:41;58.80;51.36;81.19;;
41518;Laerm;27249;48.094;-1.690;2023-03-23T13:07:10;57.81;48.80;81.93;;
41518;Laerm;27249;48.094;-1.690;2023-03-23T13:12:10;56.48;50.34;66.91;;
41518;Laerm;27249;48.094;-1.690;2023-03-23T13:24:26;57.92;50.82;72.70;;
41518;Laerm;27249;48.094;-1.690;2023-03-23T13:26:53;57.26;49.04;73.38;;
41518;Laerm;27249;48.094;-1.690;2023-03-23T13:29:22;57.21;49.64;72.08;;
41518;Laerm;27249;48.094;-1.690;2023-03-23T13:32:03;59.95;50.62;82.37;;
41518;Laerm;27249;48.094;-1.690;2023-03-23T13:34:30;60.69;50.38;84.38;;
41518;Laerm;27249;48.094;-1.690;2023-03-23T13:37:03;57.11;49.88;74.69;;
41518;Laerm;27249;48.094;-1.690;2023-03-23T13:39:34;55.86;49.32;68.19;;
41518;Laerm;27249;48.094;-1.690;2023-03-23T13:47:35;55.50;50.04;66.42;;
41518;Laerm;27249;48.094;-1.690;2023-03-23T14:00:25;60.23;50.64;84.48;;
41518;Laerm;27249;48.094;-1.690;2023-03-23T14:02:57;59.92;52.35;74.15;;
41518;Laerm;27249;48.094;-1.690;2023-03-23T14:05:36;58.28;50.96;75.38;;
41518;Laerm;27249;48.094;-1.690;2023-03-23T14:13:02;56.68;50.59;71.22;;
41518;Laerm;27249;48.094;-1.690;2023-03-23T14:15:28;58.60;51.75;75.70;;
41518;Laerm;27249;48.094;-1.690;2023-03-23T14:17:54;60.22;51.46;82.96;;
41518;Laerm;27249;48.094;-1.690;2023-03-23T14:20:30;56.83;48.32;77.53;;
41518;Laerm;27249;48.094;-1.690;2023-03-23T14:22:58;56.70;49.84;79.31;;
41518;Laerm;27249;48.094;-1.690;2023-03-23T14:25:26;57.31;49.24;83.05;;
41518;Laerm;27249;48.094;-1.690;2023-03-23T14:27:51;59.15;51.66;76.60;;
41518;Laerm;27249;48.094;-1.690;2023-03-23T14:30:19;59.01;48.81;82.92;;
41518;Laerm;27249;48.094;-1.690;2023-03-23T14:32:45;59.58;50.81;76.68;;
41518;Laerm;27249;48.094;-1.690;2023-03-23T14:35:26;59.50;51.77;76.93;;
41518;Laerm;27249;48.094;-1.690;2023-03-23T14:37:53;62.26;50.22;89.95;;
41518;Laerm;27249;48.094;-1.690;2023-03-23T14:40:18;57.40;50.17;69.37;;
41518;Laerm;27249;48.094;-1.690;2023-03-23T14:42:44;59.18;51.59;71.44;;
41518;Laerm;27249;48.094;-1.690;2023-03-23T14:45:11;59.29;49.72;83.31;;
41518;Laerm;27249;48.094;-1.690;2023-03-23T14:47:38;57.55;50.43;71.09;;
41518;Laerm;27249;48.094;-1.690;2023-03-23T14:50:06;59.61;51.70;77.84;;
41518;Laerm;27249;48.094;-1.690;2023-03-23T14:52:33;60.08;52.36;78.14;;
41518;Laerm;27249;48.094;-1.690;2023-03-23T14:55:11;57.56;50.77;67.31;;
41518;Laerm;27249;48.094;-1.690;2023-03-23T14:57:39;60.57;53.11;71.02;;
41518;Laerm;27249;48.094;-1.690;2023-03-23T15:00:11;59.98;52.34;73.22;;
41518;Laerm;27249;48.094;-1.690;2023-03-23T15:02:37;59.88;51.61;76.44;;
41518;Laerm;27249;48.094;-1.690;2023-03-23T15:05:06;59.28;51.98;65.81;;
41518;Laerm;27249;48.094;-1.690;2023-03-23T15:07:35;60.68;55.32;76.35;;
41518;Laerm;27249;48.094;-1.690;2023-03-23T15:10:01;61.00;52.26;84.29;;
41518;Laerm;27249;48.094;-1.690;2023-03-23T15:12:28;60.52;53.74;67.09;;
41518;Laerm;27249;48.094;-1.690;2023-03-23T15:14:57;61.11;55.57;66.13;;
41518;Laerm;27249;48.094;-1.690;2023-03-23T15:17:25;60.27;53.25;67.87;;
41518;Laerm;27249;48.094;-1.690;2023-03-23T15:19:52;60.06;53.52;66.90;;
41518;Laerm;27249;48.094;-1.690;2023-03-23T15:22:25;60.64;51.23;66.89;;
41518;Laerm;27249;48.094;-1.690;2023-03-23T15:24:51;60.44;53.13;73.62;;
41518;Laerm;27249;48.094;-1.690;2023-03-23T15:29:52;60.93;54.44;66.98;;
41518;Laerm;27249;48.094;-1.690;2023-03-23T15:32:30;59.71;51.99;73.93;;
41518;Laerm;27249;48.094;-1.690;2023-03-23T15:34:57;59.84;52.29;69.90;;
41518;Laerm;27249;48.094;-1.690;2023-03-23T15:37:28;60.39;53.19;67.85;;
41518;Laerm;27249;48.094;-1.690;2023-03-23T15:39:55;61.23;53.51;68.62;;
41518;Laerm;27249;48.094;-1.690;2023-03-23T15:42:25;60.51;53.72;66.54;;
41518;Laerm;27249;48.094;-1.690;2023-03-23T15:45:34;59.70;53.97;65.40;;
41518;Laerm;27249;48.094;-1.690;2023-03-23T15:50:12;61.75;55.68;72.65;;
41518;Laerm;27249;48.094;-1.690;2023-03-23T15:52:37;60.11;53.40;73.54;;
41518;Laerm;27249;48.094;-1.690;2023-03-23T15:55:03;61.68;54.60;83.76;;
41518;Laerm;27249;48.094;-1.690;2023-03-23T15:57:28;62.52;58.09;75.23;;
41518;Laerm;27249;48.094;-1.690;2023-03-23T15:59:54;63.24;57.04;86.18;;